sensor_id;sensor_type;location;lat;lon;timestamp;pressure;altitude;pressure_sealevel;temperature;humidity
21658;BME280;10990;48.174;9.782;2023-04-15T00:02:13;94149.59;;;4.32;100.00
21658;BME280;10990;48.174;9.782;2023-04-15T00:04:41;94158.72;;;4.45;100.00
21658;BME280;10990;48.174;9.782;2023-04-15T00:07:08;94204.94;;;4.37;100.00
21658;BME280;10990;48.174;9.782;2023-04-15T00:09:35;94203.47;;;4.24;100.00
21658;BME280;10990;48.174;9.782;2023-04-15T00:12:02;94227.50;;;3.82;100.00
21658;BME280;10990;48.174;9.782;2023-04-15T00:14:29;94212.69;;;3.73;100.00
21658;BME280;10990;48.174;9.782;2023-04-15T00:16:56;94177.22;;;3.61;100.00
21658;BME280;10990;48.174;9.782;2023-04-15T00:19:23;94128.31;;;3.71;100.00
21658;BME280;10990;48.174;9.782;2023-04-15T00:21:51;94094.81;;;3.85;100.00
21658;BME280;10990;48.174;9.782;2023-04-15T00:24:18;94074.91;;;3.74;100.00
21658;BME280;10990;48.174;9.782;2023-04-15T00:26:44;94046.41;;;3.98;100.00
21658;BME280;10990;48.174;9.782;2023-04-15T00:29:11;94042.88;;;4.08;100.00
21658;BME280;10990;48.174;9.782;2023-04-15T00:31:38;94048.66;;;4.11;100.00
21658;BME280;10990;48.174;9.782;2023-04-15T00:34:05;94060.91;;;4.11;100.00
21658;BME280;10990;48.174;9.782;2023-04-15T00:36:32;94075.88;;;4.00;100.00
21658;BME280;10990;48.174;9.782;2023-04-15T00:39:01;94090.13;;;4.06;100.00
21658;BME280;10990;48.174;9.782;2023-04-15T00:41:28;94148.78;;;3.58;100.00
21658;BME280;10990;48.174;9.782;2023-04-15T00:43:54;94156.00;;;3.36;100.00
21658;BME280;10990;48.174;9.782;2023-04-15T00:46:21;94150.19;;;3.43;100.00
21658;BME280;10990;48.174;9.782;2023-04-15T00:48:50;94158.53;;;3.09;100.00
21658;BME280;10990;48.174;9.782;2023-04-15T00:51:17;94143.78;;;3.27;100.00
21658;BME280;10990;48.174;9.782;2023-04-15T00:53:44;94132.81;;;3.14;100.00
21658;BME280;10990;48.174;9.782;2023-04-15T00:56:12;94120.69;;;3.23;100.00
21658;BME280;10990;48.174;9.782;2023-04-15T00:58:39;94117.19;;;3.04;100.00
21658;BME280;10990;48.174;9.782;2023-04-15T01:01:06;94088.56;;;3.12;100.00
21658;BME280;10990;48.174;9.782;2023-04-15T01:03:33;94071.53;;;3.08;100.00
21658;BME280;10990;48.174;9.782;2023-04-15T01:05:59;94069.16;;;3.15;100.00
21658;BME280;10990;48.174;9.782;2023-04-15T01:08:27;94078.56;;;3.08;100.00
21658;BME280;10990;48.174;9.782;2023-04-15T01:10:55;94096.06;;;2.88;100.00
21658;BME280;10990;48.174;9.782;2023-04-15T01:13:24;94098.69;;;2.78;100.00
21658;BME280;10990;48.174;9.782;2023-04-15T01:15:51;94082.28;;;2.96;100.00
21658;BME280;10990;48.174;9.782;2023-04-15T01:18:18;94088.28;;;2.68;100.00
21658;BME280;10990;48.174;9.782;2023-04-15T01:20:46;94061.84;;;2.81;100.00
21658;BME280;10990;48.174;9.782;2023-04-15T01:23:13;94051.47;;;2.72;100.00
21658;BME280;10990;48.174;9.782;2023-04-15T01:25:42;94041.53;;;2.75;100.00
21658;BME280;10990;48.174;9.782;2023-04-15T01:28:09;94036.31;;;2.75;100.00
21658;BME280;10990;48.174;9.782;2023-04-15T01:30:36;94044.66;;;2.41;100.00
21658;BME280;10990;48.174;9.782;2023-04-15T01:33:03;94029.72;;;2.34;100.00
21658;BME280;10990;48.174;9.782;2023-04-15T01:35:29;94013.78;;;2.37;100.00
21658;BME280;10990;48.174;9.782;2023-04-15T01:38:01;94005.69;;;2.30;100.00
21658;BME280;10990;48.174;9.782;2023-04-15T01:40:29;93998.91;;;2.47;100.00
21658;BME280;10990;48.174;9.782;2023-04-15T01:42:58;93984.47;;;2.53;100.00
21658;BME280;10990;48.174;9.782;2023-04-15T01:45:25;93975.41;;;2.57;100.00
21658;BME280;10990;48.174;9.782;2023-04-15T01:47:52;93968.16;;;2.51;100.00
21658;BME280;10990;48.174;9.782;2023-04-15T01:50:19;93960.56;;;2.57;100.00
21658;BME280;10990;48.174;9.782;2023-04-15T01:52:46;93963.66;;;2.43;100.00
21658;BME280;10990;48.174;9.782;2023-04-15T01:55:13;93969.47;;;2.08;100.00
21658;BME280;10990;48.174;9.782;2023-04-15T01:57:40;93942.13;;;2.31;100.00
21658;BME280;10990;48.174;9.782;2023-04-15T02:00:09;93923.34;;;2.18;100.00
21658;BME280;10990;48.174;9.782;2023-04-15T02:02:39;93905.72;;;2.39;100.00
21658;BME280;10990;48.174;9.782;2023-04-15T02:05:06;93896.84;;;2.60;100.00
21658;BME280;10990;48.174;9.782;2023-04-15T02:07:35;93901.38;;;2.58;100.00
21658;BME280;10990;48.174;9.782;2023-04-15T02:10:02;93904.56;;;2.79;100.00
21658;BME280;10990;48.174;9.782;2023-04-15T02:12:29;93952.81;;;2.38;100.00
21658;BME280;10990;48.174;9.782;2023-04-15T02:14:56;93944.41;;;2.44;100.00
21658;BME280;10990;48.174;9.782;2023-04-15T02:17:24;93945.25;;;2.35;100.00
21658;BME280;10990;48.174;9.782;2023-04-15T02:19:51;93921.19;;;2.51;100.00
21658;BME280;10990;48.174;9.782;2023-04-15T02:22:17;93930.25;;;2.46;100.00
21658;BME280;10990;48.174;9.782;2023-04-15T02:24:45;93942.38;;;2.38;100.00
21658;BME280;10990;48.174;9.782;2023-04-15T02:27:14;93938.59;;;2.50;100.00
21658;BME280;10990;48.174;9.782;2023-04-15T02:29:42;93943.16;;;2.48;100.00
21658;BME280;10990;48.174;9.782;2023-04-15T02:32:09;93968.38;;;2.20;100.00
21658;BME280;10990;48.174;9.782;2023-04-15T02:34:38;93949.22;;;1.92;100.00
21658;BME280;10990;48.174;9.782;2023-04-15T02:37:07;93924.69;;;2.22;100.00
21658;BME280;10990;48.174;9.782;2023-04-15T02:39:34;93922.72;;;2.43;100.00
21658;BME280;10990;48.174;9.782;2023-04-15T02:42:02;93943.66;;;2.61;100.00
21658;BME280;10990;48.174;9.782;2023-04-15T02:44:29;93952.69;;;2.39;100.00
21658;BME280;10990;48.174;9.782;2023-04-15T02:46:59;93951.13;;;2.46;100.00
21658;BME280;10990;48.174;9.782;2023-04-15T02:49:26;93949.16;;;2.58;100.00
21658;BME280;10990;48.174;9.782;2023-04-15T02:51:55;93962.78;;;2.52;100.00
21658;BME280;10990;48.174;9.782;2023-04-15T02:54:25;93987.16;;;2.14;100.00
21658;BME280;10990;48.174;9.782;2023-04-15T02:56:53;93972.63;;;2.21;100.00
21658;BME280;10990;48.174;9.782;2023-04-15T02:59:21;93981.56;;;2.09;100.00
21658;BME280;10990;48.174;9.782;2023-04-15T03:01:48;93984.19;;;1.99;100.00
21658;BME280;10990;48.174;9.782;2023-04-15T03:04:14;93981.56;;;2.09;100.00
21658;BME280;10990;48.174;9.782;2023-04-15T03:06:41;94004.31;;;2.16;100.00
21658;BME280;10990;48.174;9.782;2023-04-15T03:09:10;94023.16;;;2.00;100.00
21658;BME280;10990;48.174;9.782;2023-04-15T03:11:37;94018.22;;;1.88;100.00
21658;BME280;10990;48.174;9.782;2023-04-15T03:14:07;94031.81;;;1.72;100.00
21658;BME280;10990;48.174;9.782;2023-04-15T03:16:38;94022.72;;;1.47;100.00
21658;BME280;10990;48.174;9.782;2023-04-15T03:19:05;93994.47;;;1.62;100.00
21658;BME280;10990;48.174;9.782;2023-04-15T03:21:32;93970.22;;;1.81;100.00
21658;BME280;10990;48.174;9.782;2023-04-15T03:23:59;93956.88;;;1.93;100.00
21658;BME280;10990;48.174;9.782;2023-04-15T03:26:30;93958.94;;;1.80;100.00
21658;BME280;10990;48.174;9.782;2023-04-15T03:29:00;93954.84;;;1.87;100.00
21658;BME280;10990;48.174;9.782;2023-04-15T03:31:27;93964.16;;;1.90;100.00
21658;BME280;10990;48.174;9.782;2023-04-15T03:33:54;93970.19;;;1.71;100.00
21658;BME280;10990;48.174;9.782;2023-04-15T03:36:22;93968.81;;;1.57;100.00
21658;BME280;10990;48.174;9.782;2023-04-15T03:38:48;93957.72;;;1.65;100.00
21658;BME280;10990;48.174;9.782;2023-04-15T03:41:15;93958.97;;;1.41;100.00
21658;BME280;10990;48.174;9.782;2023-04-15T03:43:43;93914.75;;;1.88;100.00
21658;BME280;10990;48.174;9.782;2023-04-15T03:46:10;93918.09;;;1.42;100.00
21658;BME280;10990;48.174;9.782;2023-04-15T03:48:37;93888.19;;;1.65;100.00
21658;BME280;10990;48.174;9.782;2023-04-15T03:51:03;93862.97;;;1.46;100.00
21658;BME280;10990;48.174;9.782;2023-04-15T03:53:30;93821.16;;;1.48;100.00
21658;BME280;10990;48.174;9.782;2023-04-15T03:55:57;93783.03;;;1.66;100.00
21658;BME280;10990;48.174;9.782;2023-04-15T03:58:23;93733.88;;;1.81;100.00
21658;BME280;10990;48.174;9.782;2023-04-15T04:00:51;93733.78;;;2.00;100.00
21658;BME280;10990;48.174;9.782;2023-04-15T04:03:19;93765.41;;;1.78;100.00
21658;BME280;10990;48.174;9.782;2023-04-15T04:05:45;93742.91;;;1.77;100.00
21658;BME280;10990;48.174;9.782;2023-04-15T04:08:12;93729.47;;;1.82;100.00
21658;BME280;10990;48.174;9.782;2023-04-15T04:10:40;93730.59;;;1.97;100.00
21658;BME280;10990;48.174;9.782;2023-04-15T04:13:07;93736.22;;;2.02;100.00
21658;BME280;10990;48.174;9.782;2023-04-15T04:15:34;93740.94;;;2.16;100.00
21658;BME280;10990;48.174;9.782;2023-04-15T04:18:02;93757.81;;;1.94;100.00
21658;BME280;10990;48.174;9.782;2023-04-15T04:20:28;93752.25;;;2.07;100.00
21658;BME280;10990;48.174;9.782;2023-04-15T04:22:56;93772.16;;;1.71;100.00
21658;BME280;10990;48.174;9.782;2023-04-15T04:25:23;93757.59;;;1.78;100.00
21658;BME280;10990;48.174;9.782;2023-04-15T04:27:50;93760.91;;;1.70;100.00
21658;BME280;10990;48.174;9.782;2023-04-15T04:30:17;93750.22;;;1.73;100.00
21658;BME280;10990;48.174;9.782;2023-04-15T04:32:44;93746.53;;;1.66;100.00
21658;BME280;10990;48.174;9.782;2023-04-15T04:35:12;93733.22;;;1.69;100.00
21658;BME280;10990;48.174;9.782;2023-04-15T04:37:39;93722.03;;;1.87;100.00
21658;BME280;10990;48.174;9.782;2023-04-15T04:40:06;93714.53;;;2.01;100.00
21658;BME280;10990;48.174;9.782;2023-04-15T04:42:33;93722.97;;;2.13;100.00
21658;BME280;10990;48.174;9.782;2023-04-15T04:45:00;93745.72;;;1.93;100.00
21658;BME280;10990;48.174;9.782;2023-04-15T04:47:27;93740.03;;;1.80;100.00
21658;BME280;10990;48.174;9.782;2023-04-15T04:49:54;93721.34;;;1.85;100.00
21658;BME280;10990;48.174;9.782;2023-04-15T04:52:22;93717.56;;;1.97;100.00
21658;BME280;10990;48.174;9.782;2023-04-15T04:54:49;93718.25;;;1.99;100.00
21658;BME280;10990;48.174;9.782;2023-04-15T04:57:16;93715.75;;;2.07;100.00
21658;BME280;10990;48.174;9.782;2023-04-15T04:59:42;93724.84;;;2.03;100.00
21658;BME280;10990;48.174;9.782;2023-04-15T05:02:09;93728.13;;;1.77;100.00
21658;BME280;10990;48.174;9.782;2023-04-15T05:04:36;93717.44;;;1.98;100.00
21658;BME280;10990;48.174;9.782;2023-04-15T05:07:03;93715.06;;;2.05;100.00
21658;BME280;10990;48.174;9.782;2023-04-15T05:09:31;93710.09;;;2.12;100.00
21658;BME280;10990;48.174;9.782;2023-04-15T05:12:00;93722.84;;;2.15;100.00
21658;BME280;10990;48.174;9.782;2023-04-15T05:14:27;93720.47;;;2.21;100.00
21658;BME280;10990;48.174;9.782;2023-04-15T05:16:54;93732.81;;;2.19;100.00
21658;BME280;10990;48.174;9.782;2023-04-15T05:19:21;93735.00;;;2.24;100.00
21658;BME280;10990;48.174;9.782;2023-04-15T05:21:47;93718.03;;;2.20;100.00
21658;BME280;10990;48.174;9.782;2023-04-15T05:24:14;93716.22;;;2.20;100.00
21658;BME280;10990;48.174;9.782;2023-04-15T05:26:42;93711.53;;;2.42;100.00
21658;BME280;10990;48.174;9.782;2023-04-15T05:29:09;93710.66;;;2.51;100.00
21658;BME280;10990;48.174;9.782;2023-04-15T05:31:36;93720.63;;;2.56;100.00
21658;BME280;10990;48.174;9.782;2023-04-15T05:34:03;93724.22;;;2.55;100.00
21658;BME280;10990;48.174;9.782;2023-04-15T05:36:31;93754.88;;;2.25;100.00
21658;BME280;10990;48.174;9.782;2023-04-15T05:38:58;93737.72;;;2.68;100.00
21658;BME280;10990;48.174;9.782;2023-04-15T05:41:25;93762.78;;;2.61;100.00
21658;BME280;10990;48.174;9.782;2023-04-15T05:43:53;93766.06;;;2.81;100.00
21658;BME280;10990;48.174;9.782;2023-04-15T05:46:20;93785.59;;;2.77;100.00
21658;BME280;10990;48.174;9.782;2023-04-15T05:48:47;93778.50;;;2.87;100.00
21658;BME280;10990;48.174;9.782;2023-04-15T05:51:13;93768.50;;;3.00;100.00
21658;BME280;10990;48.174;9.782;2023-04-15T05:53:40;93779.63;;;3.02;100.00
21658;BME280;10990;48.174;9.782;2023-04-15T05:56:07;93784.03;;;3.02;100.00
21658;BME280;10990;48.174;9.782;2023-04-15T05:58:34;93782.56;;;2.99;100.00
21658;BME280;10990;48.174;9.782;2023-04-15T06:01:03;93772.28;;;3.24;100.00
21658;BME280;10990;48.174;9.782;2023-04-15T06:03:30;93798.72;;;3.03;100.00
21658;BME280;10990;48.174;9.782;2023-04-15T06:05:56;93800.69;;;3.19;100.00
21658;BME280;10990;48.174;9.782;2023-04-15T06:08:23;93808.19;;;3.40;100.00
21658;BME280;10990;48.174;9.782;2023-04-15T06:10:50;93817.75;;;3.75;100.00
21658;BME280;10990;48.174;9.782;2023-04-15T06:13:17;93840.28;;;3.76;100.00
21658;BME280;10990;48.174;9.782;2023-04-15T06:15:43;93854.22;;;4.11;100.00
21658;BME280;10990;48.174;9.782;2023-04-15T06:18:11;93893.78;;;4.08;100.00
21658;BME280;10990;48.174;9.782;2023-04-15T06:20:38;93904.78;;;4.37;100.00
21658;BME280;10990;48.174;9.782;2023-04-15T06:23:06;93924.56;;;4.40;100.00
21658;BME280;10990;48.174;9.782;2023-04-15T06:25:32;93944.91;;;4.46;100.00
21658;BME280;10990;48.174;9.782;2023-04-15T06:27:59;93987.16;;;4.33;100.00
21658;BME280;10990;48.174;9.782;2023-04-15T06:30:26;93969.28;;;4.81;100.00
21658;BME280;10990;48.174;9.782;2023-04-15T06:32:53;93998.09;;;5.07;100.00
21658;BME280;10990;48.174;9.782;2023-04-15T06:35:22;94063.59;;;5.15;100.00
21658;BME280;10990;48.174;9.782;2023-04-15T06:37:48;94095.97;;;5.32;100.00
21658;BME280;10990;48.174;9.782;2023-04-15T06:40:16;94116.66;;;5.43;100.00
21658;BME280;10990;48.174;9.782;2023-04-15T06:42:42;94160.78;;;5.48;100.00
21658;BME280;10990;48.174;9.782;2023-04-15T06:45:10;94201.94;;;5.81;100.00
21658;BME280;10990;48.174;9.782;2023-04-15T06:47:37;94229.91;;;6.33;100.00
21658;BME280;10990;48.174;9.782;2023-04-15T06:50:04;94282.66;;;6.48;100.00
21658;BME280;10990;48.174;9.782;2023-04-15T06:52:32;94320.97;;;6.33;100.00
21658;BME280;10990;48.174;9.782;2023-04-15T06:55:00;94340.25;;;6.49;100.00
21658;BME280;10990;48.174;9.782;2023-04-15T06:57:26;94375.16;;;6.34;100.00
21658;BME280;10990;48.174;9.782;2023-04-15T06:59:54;94378.97;;;6.47;100.00
21658;BME280;10990;48.174;9.782;2023-04-15T07:02:21;94375.81;;;6.70;100.00
21658;BME280;10990;48.174;9.782;2023-04-15T07:04:48;94398.91;;;6.58;100.00
21658;BME280;10990;48.174;9.782;2023-04-15T07:07:14;94379.16;;;6.80;100.00
21658;BME280;10990;48.174;9.782;2023-04-15T07:09:43;94386.63;;;7.01;100.00
21658;BME280;10990;48.174;9.782;2023-04-15T07:12:10;94360.72;;;6.72;100.00
21658;BME280;10990;48.174;9.782;2023-04-15T07:14:36;94304.16;;;6.51;100.00
21658;BME280;10990;48.174;9.782;2023-04-15T07:17:03;94251.69;;;6.17;100.00
21658;BME280;10990;48.174;9.782;2023-04-15T07:19:30;94189.19;;;6.21;100.00
21658;BME280;10990;48.174;9.782;2023-04-15T07:21:56;94137.41;;;6.72;100.00
21658;BME280;10990;48.174;9.782;2023-04-15T07:24:23;94138.06;;;6.99;100.00
21658;BME280;10990;48.174;9.782;2023-04-15T07:26:53;94156.09;;;7.34;100.00
21658;BME280;10990;48.174;9.782;2023-04-15T07:29:20;94211.84;;;7.46;100.00
21658;BME280;10990;48.174;9.782;2023-04-15T07:31:47;94256.81;;;7.92;100.00
21658;BME280;10990;48.174;9.782;2023-04-15T07:34:14;94307.75;;;8.24;100.00
21658;BME280;10990;48.174;9.782;2023-04-15T07:36:41;94363.19;;;8.55;100.00
21658;BME280;10990;48.174;9.782;2023-04-15T07:39:07;94415.97;;;8.86;100.00
21658;BME280;10990;48.174;9.782;2023-04-15T07:41:34;94492.50;;;9.17;100.00
21658;BME280;10990;48.174;9.782;2023-04-15T07:44:02;94550.38;;;9.27;100.00
21658;BME280;10990;48.174;9.782;2023-04-15T07:46:29;94590.63;;;9.13;100.00
21658;BME280;10990;48.174;9.782;2023-04-15T07:48:56;94609.91;;;9.22;100.00
21658;BME280;10990;48.174;9.782;2023-04-15T07:51:23;94630.66;;;9.41;100.00
21658;BME280;10990;48.174;9.782;2023-04-15T07:53:50;94646.63;;;9.48;100.00
21658;BME280;10990;48.174;9.782;2023-04-15T07:56:17;94674.72;;;9.40;100.00
21658;BME280;10990;48.174;9.782;2023-04-15T07:58:44;94676.81;;;9.61;100.00
21658;BME280;10990;48.174;9.782;2023-04-15T08:01:12;94695.59;;;9.75;100.00
21658;BME280;10990;48.174;9.782;2023-04-15T08:03:38;94706.06;;;10.07;100.00
21658;BME280;10990;48.174;9.782;2023-04-15T08:06:05;94721.75;;;10.65;100.00
21658;BME280;10990;48.174;9.782;2023-04-15T08:08:32;94739.59;;;10.94;100.00
21658;BME280;10990;48.174;9.782;2023-04-15T08:10:59;94751.34;;;10.91;100.00
21658;BME280;10990;48.174;9.782;2023-04-15T08:13:26;94763.66;;;11.07;100.00
21658;BME280;10990;48.174;9.782;2023-04-15T08:16:14;94773.13;;;11.02;100.00
21658;BME280;10990;48.174;9.782;2023-04-15T08:18:41;94783.09;;;10.91;100.00
21658;BME280;10990;48.174;9.782;2023-04-15T08:21:08;94792.91;;;11.60;100.00
21658;BME280;10990;48.174;9.782;2023-04-15T08:23:35;94806.69;;;11.78;100.00
21658;BME280;10990;48.174;9.782;2023-04-15T08:26:02;94810.34;;;12.00;100.00
21658;BME280;10990;48.174;9.782;2023-04-15T08:28:29;94818.38;;;12.60;100.00
21658;BME280;10990;48.174;9.782;2023-04-15T08:30:56;94820.66;;;13.07;100.00
21658;BME280;10990;48.174;9.782;2023-04-15T08:33:24;94827.69;;;14.16;100.00
21658;BME280;10990;48.174;9.782;2023-04-15T08:35:51;94835.19;;;13.84;100.00
21658;BME280;10990;48.174;9.782;2023-04-15T08:38:18;94834.06;;;13.20;100.00
21658;BME280;10990;48.174;9.782;2023-04-15T08:40:45;94836.75;;;13.06;100.00
21658;BME280;10990;48.174;9.782;2023-04-15T08:43:14;94831.13;;;14.31;100.00
21658;BME280;10990;48.174;9.782;2023-04-15T08:45:44;94831.22;;;14.72;100.00
21658;BME280;10990;48.174;9.782;2023-04-15T08:48:14;94831.38;;;14.36;100.00
21658;BME280;10990;48.174;9.782;2023-04-15T08:50:43;94826.44;;;15.51;100.00
21658;BME280;10990;48.174;9.782;2023-04-15T08:53:10;94836.69;;;14.15;100.00
21658;BME280;10990;48.174;9.782;2023-04-15T08:55:41;94833.78;;;14.94;100.00
21658;BME280;10990;48.174;9.782;2023-04-15T08:58:09;94828.59;;;15.68;100.00
21658;BME280;10990;48.174;9.782;2023-04-15T09:00:36;94827.81;;;16.21;100.00
21658;BME280;10990;48.174;9.782;2023-04-15T09:03:03;94820.84;;;16.80;100.00
21658;BME280;10990;48.174;9.782;2023-04-15T09:05:31;94821.69;;;16.14;100.00
21658;BME280;10990;48.174;9.782;2023-04-15T09:08:00;94811.34;;;16.97;100.00
21658;BME280;10990;48.174;9.782;2023-04-15T09:10:28;94817.06;;;17.08;100.00
21658;BME280;10990;48.174;9.782;2023-04-15T09:12:55;94814.84;;;17.50;100.00
21658;BME280;10990;48.174;9.782;2023-04-15T09:15:23;94812.13;;;18.76;100.00
21658;BME280;10990;48.174;9.782;2023-04-15T09:17:51;94810.22;;;19.20;95.39
21658;BME280;10990;48.174;9.782;2023-04-15T09:20:19;94811.19;;;18.64;95.34
21658;BME280;10990;48.174;9.782;2023-04-15T09:22:47;94810.41;;;18.57;96.38
21658;BME280;10990;48.174;9.782;2023-04-15T09:25:28;94808.28;;;19.27;97.88
21658;BME280;10990;48.174;9.782;2023-04-15T09:27:56;94811.06;;;19.51;96.81
21658;BME280;10990;48.174;9.782;2023-04-15T09:30:23;94819.28;;;18.83;93.43
21658;BME280;10990;48.174;9.782;2023-04-15T09:32:51;94820.94;;;18.02;92.79
21658;BME280;10990;48.174;9.782;2023-04-15T09:35:19;94826.88;;;18.60;90.07
21658;BME280;10990;48.174;9.782;2023-04-15T09:37:46;94815.25;;;18.23;83.52
21658;BME280;10990;48.174;9.782;2023-04-15T09:40:12;94820.13;;;17.63;87.33
21658;BME280;10990;48.174;9.782;2023-04-15T09:42:56;94824.03;;;17.09;90.28
21658;BME280;10990;48.174;9.782;2023-04-15T09:45:23;94830.28;;;16.29;94.11
21658;BME280;10990;48.174;9.782;2023-04-15T09:47:50;94832.56;;;16.39;98.51
21658;BME280;10990;48.174;9.782;2023-04-15T09:50:18;94827.84;;;16.14;98.62
21658;BME280;10990;48.174;9.782;2023-04-15T09:52:46;94833.38;;;16.06;100.00
21658;BME280;10990;48.174;9.782;2023-04-15T09:55:14;94826.78;;;15.89;100.00
21658;BME280;10990;48.174;9.782;2023-04-15T09:57:41;94835.72;;;15.61;94.87
21658;BME280;10990;48.174;9.782;2023-04-15T10:00:10;94826.94;;;17.07;96.11
21658;BME280;10990;48.174;9.782;2023-04-15T10:02:39;94828.66;;;16.15;87.75
21658;BME280;10990;48.174;9.782;2023-04-15T10:05:09;94828.88;;;16.13;89.95
21658;BME280;10990;48.174;9.782;2023-04-15T10:07:37;94829.47;;;16.09;96.34
21658;BME280;10990;48.174;9.782;2023-04-15T10:10:06;94832.97;;;14.87;89.85
21658;BME280;10990;48.174;9.782;2023-04-15T10:12:36;94829.44;;;15.28;95.81
21658;BME280;10990;48.174;9.782;2023-04-15T10:15:04;94832.81;;;15.50;97.59
21658;BME280;10990;48.174;9.782;2023-04-15T10:17:33;94822.31;;;15.41;94.84
21658;BME280;10990;48.174;9.782;2023-04-15T10:20:02;94827.16;;;15.18;91.92
21658;BME280;10990;48.174;9.782;2023-04-15T10:22:31;94839.53;;;14.91;96.47
21658;BME280;10990;48.174;9.782;2023-04-15T10:24:58;94828.66;;;15.34;99.45
21658;BME280;10990;48.174;9.782;2023-04-15T10:27:26;94826.59;;;15.29;100.00
21658;BME280;10990;48.174;9.782;2023-04-15T10:29:54;94833.41;;;14.97;94.17
21658;BME280;10990;48.174;9.782;2023-04-15T10:32:23;94833.72;;;15.15;89.10
21658;BME280;10990;48.174;9.782;2023-04-15T10:34:53;94838.41;;;15.20;89.17
21658;BME280;10990;48.174;9.782;2023-04-15T10:37:21;94830.16;;;15.56;87.40
21658;BME280;10990;48.174;9.782;2023-04-15T10:39:48;94837.84;;;15.93;93.05
21658;BME280;10990;48.174;9.782;2023-04-15T10:42:16;94835.41;;;16.24;92.18
21658;BME280;10990;48.174;9.782;2023-04-15T10:44:44;94834.41;;;16.45;85.89
21658;BME280;10990;48.174;9.782;2023-04-15T10:47:15;94836.22;;;15.91;88.19
21658;BME280;10990;48.174;9.782;2023-04-15T10:49:46;94838.44;;;15.88;87.74
21658;BME280;10990;48.174;9.782;2023-04-15T10:52:15;94845.91;;;15.51;92.96
21658;BME280;10990;48.174;9.782;2023-04-15T10:54:43;94846.19;;;15.63;92.90
21658;BME280;10990;48.174;9.782;2023-04-15T10:57:15;94860.38;;;15.22;91.46
21658;BME280;10990;48.174;9.782;2023-04-15T11:00:03;94846.53;;;16.28;93.42
21658;BME280;10990;48.174;9.782;2023-04-15T11:02:43;94844.84;;;16.73;89.58
21658;BME280;10990;48.174;9.782;2023-04-15T11:05:11;94836.47;;;16.76;85.03
21658;BME280;10990;48.174;9.782;2023-04-15T11:07:46;94832.34;;;16.41;86.63
21658;BME280;10990;48.174;9.782;2023-04-15T11:13:24;94833.13;;;16.74;96.86
21658;BME280;10990;48.174;9.782;2023-04-15T11:15:58;94832.94;;;16.69;94.45
21658;BME280;10990;48.174;9.782;2023-04-15T11:18:32;94835.81;;;16.68;97.67
21658;BME280;10990;48.174;9.782;2023-04-15T11:21:04;94835.41;;;16.91;99.03
21658;BME280;10990;48.174;9.782;2023-04-15T11:23:34;94838.69;;;16.86;89.04
21658;BME280;10990;48.174;9.782;2023-04-15T11:26:02;94836.44;;;16.56;86.35
21658;BME280;10990;48.174;9.782;2023-04-15T11:28:31;94844.66;;;16.55;91.96
21658;BME280;10990;48.174;9.782;2023-04-15T11:31:05;94857.81;;;16.23;92.03
21658;BME280;10990;48.174;9.782;2023-04-15T11:33:32;94847.16;;;16.36;87.35
21658;BME280;10990;48.174;9.782;2023-04-15T11:36:00;94846.09;;;16.64;82.67
21658;BME280;10990;48.174;9.782;2023-04-15T11:38:26;94833.59;;;16.45;77.96
21658;BME280;10990;48.174;9.782;2023-04-15T11:40:54;94834.41;;;16.52;77.13
21658;BME280;10990;48.174;9.782;2023-04-15T11:43:22;94847.13;;;16.03;79.16
21658;BME280;10990;48.174;9.782;2023-04-15T11:45:51;94849.97;;;15.88;80.92
21658;BME280;10990;48.174;9.782;2023-04-15T11:48:20;94846.66;;;15.80;84.18
21658;BME280;10990;48.174;9.782;2023-04-15T11:50:52;94855.81;;;15.64;82.35
21658;BME280;10990;48.174;9.782;2023-04-15T11:53:19;94858.16;;;15.32;75.20
21658;BME280;10990;48.174;9.782;2023-04-15T11:55:47;94871.84;;;14.81;80.74
21658;BME280;10990;48.174;9.782;2023-04-15T11:58:17;94874.41;;;14.68;84.95
21658;BME280;10990;48.174;9.782;2023-04-15T12:00:48;94882.09;;;14.56;89.81
21658;BME280;10990;48.174;9.782;2023-04-15T12:03:19;94875.78;;;13.93;84.35
21658;BME280;10990;48.174;9.782;2023-04-15T12:06:09;94881.84;;;13.86;85.77
21658;BME280;10990;48.174;9.782;2023-04-15T12:08:59;94882.94;;;14.63;86.02
21658;BME280;10990;48.174;9.782;2023-04-15T12:11:28;94882.78;;;14.65;82.56
21658;BME280;10990;48.174;9.782;2023-04-15T12:13:58;94881.56;;;15.02;80.42
21658;BME280;10990;48.174;9.782;2023-04-15T12:16:27;94895.78;;;13.88;90.27
21658;BME280;10990;48.174;9.782;2023-04-15T12:18:56;94897.66;;;13.73;86.19
21658;BME280;10990;48.174;9.782;2023-04-15T12:21:25;94902.03;;;13.81;88.74
21658;BME280;10990;48.174;9.782;2023-04-15T12:23:52;94898.56;;;14.02;91.30
21658;BME280;10990;48.174;9.782;2023-04-15T12:26:25;94899.78;;;13.63;77.00
21658;BME280;10990;48.174;9.782;2023-04-15T12:28:53;94903.09;;;13.86;76.87
21658;BME280;10990;48.174;9.782;2023-04-15T12:31:21;94906.28;;;14.40;78.86
21658;BME280;10990;48.174;9.782;2023-04-15T12:33:48;94907.34;;;13.81;80.38
21658;BME280;10990;48.174;9.782;2023-04-15T12:36:15;94909.88;;;14.10;82.40
21658;BME280;10990;48.174;9.782;2023-04-15T12:38:42;94912.00;;;14.37;86.41
21658;BME280;10990;48.174;9.782;2023-04-15T12:41:09;94907.88;;;14.12;82.27
21658;BME280;10990;48.174;9.782;2023-04-15T12:43:35;94912.47;;;14.47;81.55
21658;BME280;10990;48.174;9.782;2023-04-15T12:46:02;94911.50;;;14.76;82.06
21658;BME280;10990;48.174;9.782;2023-04-15T12:48:30;94916.28;;;14.38;81.34
21658;BME280;10990;48.174;9.782;2023-04-15T12:50:57;94921.59;;;13.95;84.06
21658;BME280;10990;48.174;9.782;2023-04-15T12:53:24;94924.47;;;13.78;87.96
21658;BME280;10990;48.174;9.782;2023-04-15T12:55:51;94932.97;;;13.52;89.63
21658;BME280;10990;48.174;9.782;2023-04-15T12:58:17;94936.19;;;13.48;89.46
21658;BME280;10990;48.174;9.782;2023-04-15T13:00:44;94939.66;;;13.48;94.52
21658;BME280;10990;48.174;9.782;2023-04-15T13:03:11;94938.44;;;13.65;90.82
21658;BME280;10990;48.174;9.782;2023-04-15T13:05:39;94941.09;;;13.65;87.50
21658;BME280;10990;48.174;9.782;2023-04-15T13:08:06;94935.91;;;14.15;91.82